Latest Weather Observations for Esperance Airport

IDW60801

Issued at 5:03 pm WST Thursday 27 April 2017 (issued every 30 minutes, with the page automatically refreshed every 10 minutes)

About weather observations | Map of weather stations | Latest weather observations for WA | Other Formats
Station Details ID: 009542 Name: ESPERANCE AERO Lat: -33.68 Lon: 121.83 Height: 142.0 m
Data from the previous 72 hours. | See also: Recent months at Esperance Airport
Date/Time
WST
Temp
°C
App
Temp
°C
Dew
Point
°C
Rel
Hum
%
Delta-T
°C
Wind Press
QNH
hPa
Press
MSL
hPa
Rain since
9am
mm
Dir  Spd
km/h
Gust
km/h
Spd
kts
Gust
kts
27/05:00pm 19.5 18.3 8.2 48 5.9 NW 4 6 2 3 1026.4 1026.1 0.2
27/04:30pm 21.0 19.1 6.9 40 7.2 N 6 11 3 6 1026.4 1026.1 0.2
27/04:00pm 21.8 19.5 7.6 40 7.4 N 9 13 5 7 1026.4 1026.1 0.2
27/03:30pm 21.1 18.3 7.0 40 7.2 N 11 15 6 8 1026.4 1026.1 0.2
27/03:00pm 21.7 18.9 6.8 38 7.6 N 11 15 6 8 1026.4 1026.1 0.2
27/02:30pm 21.7 19.9 7.2 39 7.5 NNE 6 9 3 5 1026.3 1026.0 0.2
27/02:00pm 22.7 20.4 7.3 37 8.0 N 9 17 5 9 1026.4 1026.1 0.2
27/01:30pm 22.5 20.2 7.5 38 7.9 NE 9 17 5 9 1026.6 1026.3 0.2
27/01:00pm 23.2 21.0 7.7 37 8.1 N 9 17 5 9 1026.9 1026.6 0.2
27/12:30pm 22.1 19.1 7.5 39 7.6 NE 13 17 7 9 1027.3 1027.0 0.2
27/12:00pm 21.7 18.4 7.9 41 7.2 N 15 22 8 12 1027.9 1027.6 0.2
27/11:30am 22.2 18.8 9.0 43 7.1 NNW 17 22 9 12 1028.5 1028.2 0.2
27/11:00am 19.9 16.7 8.6 48 5.9 NNW 15 19 8 10 1028.9 1028.6 0.2
27/10:30am 21.6 17.8 9.2 45 6.7 NNW 19 24 10 13 1029.1 1028.8 0.2
27/10:00am 20.3 16.3 9.2 49 5.9 N 20 28 11 15 1029.5 1029.2 0.0
27/09:30am 19.6 16.1 10.9 57 4.8 N 20 28 11 15 1029.7 1029.4 0.0
27/09:00am 17.4 13.0 10.3 63 3.8 N 24 28 13 15 1029.9 1029.6 0.0
27/08:30am 15.4 11.6 11.0 75 2.4 N 22 28 12 15 1029.8 1029.5 0.0
27/08:00am 13.8 10.5 11.0 83 1.5 N 19 28 10 15 1029.8 1029.5 0.0
27/07:30am 12.4 9.2 10.1 86 1.2 N 17 24 9 13 1029.4 1029.1 0.0
27/07:00am 11.3 8.4 9.6 89 0.9 NNE 15 22 8 12 1029.3 1029.0 0.0
27/06:30am 10.6 7.5 8.9 89 0.8 NNE 15 20 8 11 1029.2 1028.9 0.0
27/06:00am 10.9 7.8 9.0 88 0.9 NNE 15 19 8 10 1029.2 1028.9 0.0
27/05:30am 10.8 7.7 8.9 88 0.9 NNE 15 22 8 12 1029.1 1028.8 0.0
27/05:00am 10.9 8.3 9.2 89 0.8 NNE 13 19 7 10 1029.0 1028.7 0.0
27/04:30am 11.0 8.4 9.3 89 0.9 NNE 13 15 7 8 1028.9 1028.6 0.0
27/04:00am 10.9 8.7 9.3 90 0.8 NNE 11 15 6 8 1028.9 1028.6 0.0
27/03:30am 10.4 8.4 8.8 90 0.8 NNE 9 13 5 7 1028.9 1028.6 0.0
27/03:00am 10.9 8.7 9.3 90 0.8 NNE 11 15 6 8 1028.8 1028.5 0.0
27/02:30am 11.2 8.7 9.6 90 0.8 NNE 13 17 7 9 1028.9 1028.6 0.0
27/02:00am 11.3 8.8 9.7 90 0.8 NNE 13 19 7 10 1029.0 1028.7 0.0
27/01:30am 11.1 8.2 9.5 90 0.8 NNE 15 19 8 10 1029.0 1028.7 0.0
27/01:00am 11.3 8.8 9.7 90 0.8 NNE 13 17 7 9 1028.9 1028.6 0.0
27/12:30am 11.2 8.3 9.6 90 0.8 NNE 15 19 8 10 1028.8 1028.5 0.0
27/12:00am 11.6 9.5 9.9 89 0.9 NNE 11 15 6 8 1028.9 1028.6 0.0
 
Date/Time
WST
Temp
°C
App
Temp
°C
Dew
Point
°C
Rel
Hum
%
Delta-T
°C
Wind Press
QNH
hPa
Press
MSL
hPa
Rain since
9am
mm
Dir  Spd
km/h
Gust
km/h
Spd
kts
Gust
kts
26/11:30pm 11.8 10.1 9.9 88 1.0 NNE 9 13 5 7 1028.8 1028.5 0.0
26/11:00pm 12.3 10.7 10.2 87 1.1 NE 9 13 5 7 1028.6 1028.3 0.0
26/10:30pm 12.8 11.3 10.5 86 1.2 E 9 13 5 7 1028.8 1028.5 0.0
26/10:00pm 12.7 11.2 10.4 86 1.2 ENE 9 13 5 7 1028.9 1028.6 0.0
26/09:30pm 13.2 11.7 10.7 85 1.3 ENE 9 13 5 7 1028.9 1028.6 0.0
26/09:00pm 13.3 11.8 10.7 84 1.4 E 9 11 5 6 1028.8 1028.5 0.0
26/08:30pm 13.5 12.1 11.0 85 1.3 ENE 9 13 5 7 1028.7 1028.4 0.0
26/08:00pm 13.8 12.5 11.3 85 1.3 E 9 13 5 7 1028.6 1028.3 0.0
26/07:30pm 13.2 11.9 11.1 87 1.1 ESE 9 9 5 5 1028.5 1028.2 0.0
26/07:00pm 13.8 12.2 11.5 86 1.2 SE 11 13 6 7 1028.4 1028.1 0.0
26/06:30pm 13.7 12.4 11.2 85 1.3 ESE 9 13 5 7 1028.2 1027.9 0.0
26/06:00pm 14.5 12.9 11.7 83 1.5 SE 11 13 6 7 1027.8 1027.5 0.0
26/05:30pm 15.2 13.7 12.0 81 1.7 SE 11 13 6 7 1027.6 1027.3 0.0
26/05:00pm 15.9 14.3 11.7 76 2.3 SE 11 13 6 7 1027.4 1027.1 0.0
26/04:30pm 17.5 15.0 12.2 71 2.9 SE 17 20 9 11 1027.5 1027.2 0.0
26/04:00pm 18.5 16.3 12.0 66 3.6 SSE 15 22 8 12 1027.4 1027.1 0.0
26/03:30pm 17.8 15.3 12.3 70 3.1 SSE 17 22 9 12 1027.3 1027.0 0.0
26/03:00pm 18.1 15.1 12.1 68 3.3 SSE 19 26 10 14 1027.3 1027.0 0.0
26/02:30pm 18.4 15.5 12.2 67 3.5 SE 19 24 10 13 1027.1 1026.8 0.0
26/02:00pm 19.1 16.0 12.1 64 3.9 SE 20 26 11 14 1027.1 1026.8 0.0
26/01:30pm 20.1 17.9 10.8 55 5.1 SSW 13 20 7 11 1027.0 1026.7 0.0
26/01:00pm 20.3 18.0 8.9 48 6.0 SSW 11 20 6 11 1027.2 1026.9 0.0
26/12:30pm 21.3 19.8 10.5 50 5.9 W 9 20 5 11 1027.6 1027.3 0.0
26/12:00pm 20.0 17.7 10.4 54 5.2 W 13 19 7 10 1028.1 1027.8 0.0
26/11:30am 20.2 17.9 10.6 54 5.2 W 13 19 7 10 1028.7 1028.4 0.0
26/11:00am 19.9 18.2 11.1 57 4.8 WNW 11 17 6 9 1028.8 1028.5 0.0
26/10:30am 19.2 16.9 11.7 62 4.2 WNW 15 19 8 10 1029.0 1028.7 0.0
26/10:00am 18.6 16.8 12.1 66 3.6 WNW 13 19 7 10 1029.1 1028.8 0.0
26/09:30am 17.5 15.5 12.6 73 2.7 NW 15 20 8 11 1029.2 1028.9 0.0
26/09:00am 15.7 14.0 13.7 88 1.1 NW 15 20 8 11 1029.2 1028.9 0.0
26/08:30am 14.5 13.5 13.4 93 0.6 NNW 11 17 6 9 1029.2 1028.9 0.0
26/08:00am 12.9 11.8 12.0 94 0.5 NNW 9 13 5 7 1029.2 1028.9 0.0
26/07:30am 11.2 8.9 10.3 94 0.5 NNW 13 17 7 9 1029.0 1028.7 0.0
26/07:00am 10.0 7.8 9.2 95 0.4 NW 11 17 6 9 1028.8 1028.5 0.0
26/06:30am 9.2 6.7 8.3 94 0.4 NW 11 15 6 8 1028.6 1028.3 0.0
26/06:00am 9.3 6.8 8.4 94 0.4 NNW 11 15 6 8 1028.5 1028.2 0.0
26/05:30am 9.0 6.5 8.1 94 0.4 NNW 11 13 6 7 1028.2 1027.9 0.0
26/05:00am 8.8 5.8 7.9 94 0.4 N 13 13 7 7 1028.0 1027.7 0.0
26/04:30am 8.6 6.0 7.7 94 0.4 N 11 13 6 7 1027.8 1027.5 0.0
26/04:00am 8.6 6.4 7.7 94 0.4 NNW 9 13 5 7 1027.8 1027.5 0.0
26/03:30am 8.5 5.9 7.6 94 0.4 N 11 13 6 7 1027.6 1027.3 0.0
26/03:00am 9.1 6.2 8.2 94 0.4 N 13 13 7 7 1027.5 1027.2 0.0
26/02:30am 9.5 7.1 8.6 94 0.4 N 11 13 6 7 1027.5 1027.2 0.0
26/02:00am 8.7 6.1 7.6 93 0.5 N 11 11 6 6 1027.6 1027.3 0.0
26/01:30am 9.2 6.7 8.1 93 0.5 N 11 11 6 6 1027.5 1027.2 0.0
26/01:00am 9.2 7.1 8.1 93 0.5 N 9 11 5 6 1027.6 1027.3 0.0
26/12:30am 9.7 7.3 8.6 93 0.5 N 11 13 6 7 1027.6 1027.3 0.0
26/12:00am 9.9 7.5 8.7 92 0.6 N 11 11 6 6 1027.7 1027.4 0.0
 
Date/Time
WST
Temp
°C
App
Temp
°C
Dew
Point
°C
Rel
Hum
%
Delta-T
°C
Wind Press
QNH
hPa
Press
MSL
hPa
Rain since
9am
mm
Dir  Spd
km/h
Gust
km/h
Spd
kts
Gust
kts
25/11:30pm 10.1 8.2 8.9 92 0.6 N 9 9 5 5 1027.6 1027.3 0.0
25/11:00pm 10.2 8.3 9.0 92 0.6 N 9 9 5 5 1027.6 1027.3 0.0
25/10:30pm 10.5 9.0 9.1 91 0.7 N 7 9 4 5 1027.8 1027.5 0.0
25/10:00pm 11.2 10.4 9.8 91 0.7 N 4 6 2 3 1027.7 1027.4 0.0
25/09:30pm 10.7 9.4 9.3 91 0.7 N 6 7 3 4 1027.7 1027.4 0.0
25/09:00pm 11.6 11.6 9.9 89 0.9 CALM 0 0 0 0 1027.6 1027.3 0.0
25/08:30pm 12.4 12.7 10.8 90 0.8 CALM 0 0 0 0 1027.3 1027.0 0.0
25/08:00pm 11.9 12.0 10.1 89 0.9 CALM 0 0 0 0 1027.1 1026.8 0.0
25/07:30pm 12.3 12.5 10.4 88 1.0 CALM 0 0 0 0 1026.8 1026.5 0.0
25/07:00pm 13.1 13.4 11.0 87 1.1 CALM 0 0 0 0 1026.5 1026.2 0.0
25/06:30pm 13.5 12.7 10.9 84 1.4 S 6 7 3 4 1026.4 1026.1 0.0
25/06:00pm 13.9 12.9 10.9 82 1.6 S 7 7 4 4 1026.2 1025.9 0.0
25/05:30pm 14.8 13.4 11.0 78 2.0 S 9 11 5 6 1025.9 1025.6 0.0
25/05:00pm 16.2 14.0 10.9 71 2.8 SSW 13 15 7 8 1025.8 1025.5 0.0
25/04:30pm 16.3 14.1 10.8 70 3.0 SSW 13 20 7 11 1025.6 1025.3 0.0
25/04:00pm 18.2 14.9 10.8 62 4.0 SW 19 26 10 14 1025.4 1025.1 0.0
25/03:30pm 19.3 15.9 10.6 57 4.7 SW 19 26 10 14 1025.2 1024.9 0.0
25/03:00pm 19.4 16.2 9.9 54 5.1 SW 17 26 9 14 1025.1 1024.8 0.0
25/02:30pm 18.6 14.8 9.1 54 5.0 SW 19 24 10 13 1024.8 1024.5 0.0
25/02:00pm 18.4 15.0 9.2 55 4.8 SSW 17 26 9 14 1024.7 1024.4 0.0
25/01:30pm 17.3 13.5 9.2 59 4.2 S 19 24 10 13 1024.9 1024.6 0.0
25/01:00pm 18.1 14.1 8.1 52 5.1 SSW 19 28 10 15 1024.9 1024.6 0.0
25/12:30pm 18.6 14.2 8.8 53 5.1 SSW 22 28 12 15 1025.2 1024.9 0.0
25/12:00pm 19.4 15.3 8.7 50 5.6 SSW 20 28 11 15 1025.4 1025.1 0.0
25/11:30am 19.2 14.2 8.2 49 5.7 WSW 24 33 13 18 1025.7 1025.4 0.0
25/11:00am 18.5 14.6 10.8 61 4.2 SW 22 33 12 18 1025.8 1025.5 0.0
25/10:30am 17.0 13.3 11.5 70 3.0 SSW 22 35 12 19 1026.0 1025.7 0.0
25/10:00am 17.5 14.0 12.2 71 2.9 SSW 22 28 12 15 1025.9 1025.6 0.0
25/09:30am 16.0 12.6 12.6 80 1.9 SSW 22 32 12 17 1025.9 1025.6 0.0
25/09:00am 15.6 14.7 13.8 89 1.0 WSW 11 13 6 7 1025.8 1025.5 4.6
25/08:55am 15.2 14.6 13.4 89 1.0 WSW 9 13 5 7 1025.9 1025.6 4.6
25/08:39am 14.8 12.1 12.8 88 1.1 SW 19 26 10 14 1025.6 1025.3 4.4
25/08:30am 15.3 12.7 13.3 88 1.1 WSW 19 26 10 14 1025.6 1025.3 4.0
25/08:00am 15.5 15.2 14.4 93 0.6 WSW 9 13 5 7 1025.2 1024.9 4.0
25/07:30am 14.3 13.6 13.3 94 0.6 WSW 9 11 5 6 1025.0 1024.7 4.0
25/07:00am 13.9 13.1 13.0 94 0.5 WSW 9 11 5 6 1024.6 1024.3 4.0
25/06:30am 13.2 12.6 12.3 94 0.5 W 7 9 4 5 1024.2 1023.8 4.0
25/06:00am 14.2 13.9 13.2 94 0.6 SW 7 11 4 6 1023.9 1023.5 4.0
25/05:30am 13.9 14.1 13.0 94 0.5 WSW 4 9 2 5 1023.3 1023.0 4.0
25/05:00am 14.1 15.1 13.1 94 0.6 CALM 0 0 0 0 1023.1 1022.8 4.0
25/04:36am 14.3 14.0 13.3 94 0.6 SSW 7 9 4 5 1022.9 1022.6 4.0
25/04:30am 14.3 13.6 13.3 94 0.6 SSW 9 11 5 6 1023.0 1022.7 4.0
25/04:14am 14.4 12.6 13.3 93 0.6 SW 15 20 8 11 1023.0 1022.7 4.0
25/04:00am 14.6 13.2 13.5 93 0.6 WSW 13 20 7 11 1023.0 1022.7 3.8
25/03:44am 14.6 14.0 13.5 93 0.6 W 9 13 5 7 1022.8 1022.5 3.6
25/03:42am 14.6 14.0 13.5 93 0.6 W 9 13 5 7 1022.8 1022.5 3.6
25/03:30am 14.5 13.5 13.4 93 0.6 WNW 11 17 6 9 1022.4 1022.1 3.6
25/03:01am 14.5 13.5 13.4 93 0.6 WNW 11 13 6 7 1022.6 1022.3 3.6
25/03:00am 14.5 13.5 13.4 93 0.6 WNW 11 13 6 7 1022.6 1022.3 3.6
25/02:52am 14.4 13.7 13.3 93 0.6 WNW 9 13 5 7 1022.5 1022.2 3.6
25/02:51am 14.4 13.7 13.3 93 0.6 WNW 9 13 5 7 1022.5 1022.2 3.6
25/02:33am 14.4 13.4 13.3 93 0.6 NW 11 13 6 7 1022.4 1022.1 2.4
25/02:30am 14.4 13.7 13.3 93 0.6 NW 9 13 5 7 1022.5 1022.2 1.8
25/02:14am 14.3 13.5 13.0 92 0.7 NW 9 13 5 7 1022.5 1022.2 1.6
25/02:00am 14.1 13.3 12.8 92 0.7 NW 9 13 5 7 1022.4 1022.1 1.6
25/01:30am 14.2 13.0 12.9 92 0.7 NNW 11 13 6 7 1022.3 1022.0 1.6
25/01:00am 14.3 13.5 13.0 92 0.7 NNW 9 11 5 6 1022.5 1022.2 1.6
25/12:54am 14.3 13.5 12.9 91 0.8 NNW 9 9 5 5 1022.4 1022.1 1.6
25/12:35am 14.3 13.5 12.9 91 0.8 N 9 11 5 6 1022.4 1022.1 1.4
25/12:30am 14.3 13.5 12.9 91 0.8 N 9 11 5 6 1022.4 1022.1 1.2
25/12:04am 14.5 13.7 12.9 90 0.9 NNE 9 9 5 5 1022.2 1021.9 1.2
25/12:00am 14.6 13.8 13.0 90 0.9 NNE 9 9 5 5 1022.2 1021.9 1.2
 
Date/Time
WST
Temp
°C
App
Temp
°C
Dew
Point
°C
Rel
Hum
%
Delta-T
°C
Wind Press
QNH
hPa
Press
MSL
hPa
Rain since
9am
mm
Dir  Spd
km/h
Gust
km/h
Spd
kts
Gust
kts
24/11:43pm 14.8 14.5 13.2 90 0.9 NE 7 9 4 5 1022.4 1022.1 0.8
24/11:30pm 14.6 14.2 13.0 90 0.9 NNE 7 9 4 5 1022.5 1022.2 0.2
24/11:00pm 14.1 14.4 12.3 89 1.0 NNE 2 7 1 4 1022.5 1022.2 0.0
24/10:30pm 14.2 15.0 12.4 89 1.0 CALM 0 0 0 0 1022.8 1022.5 0.0
24/10:00pm 14.2 13.6 12.2 88 1.1 NNE 7 9 4 5 1022.6 1022.3 0.0
24/09:30pm 14.8 14.3 12.8 88 1.1 ENE 7 9 4 5 1022.5 1022.2 0.0
24/09:00pm 14.6 13.7 12.6 88 1.1 ENE 9 11 5 6 1022.4 1022.1 0.0
24/08:30pm 14.5 13.6 12.5 88 1.1 ENE 9 11 5 6 1022.2 1021.9 0.0
24/08:00pm 14.6 13.8 12.8 89 1.0 E 9 11 5 6 1022.3 1022.0 0.0
24/07:30pm 14.1 13.1 12.3 89 1.0 E 9 11 5 6 1022.3 1022.0 0.0
24/07:00pm 13.7 12.5 11.6 87 1.1 SE 9 11 5 6 1022.3 1022.0 0.0
24/06:30pm 14.7 13.3 12.2 85 1.4 SE 11 13 6 7 1022.1 1021.8 0.0
24/06:00pm 14.9 13.0 11.9 82 1.6 SE 13 15 7 8 1021.8 1021.5 0.0
24/05:30pm 15.9 13.5 11.5 75 2.4 SE 15 19 8 10 1021.5 1021.2 0.0

Other Formats:

Comma delimited format used in spreadsheet applications
http://www.bom.gov.au/fwo/IDW60801/IDW60801.95638.axf

JavaScript Object Notation format (JSON) in row-major order
http://www.bom.gov.au/fwo/IDW60801/IDW60801.95638.json